createdAt,value
2019-05-05T00:00:44.638Z,4.60
2019-05-05T00:03:21.677Z,4.70
2019-05-05T00:05:51.700Z,4.90
2019-05-05T00:08:21.669Z,4.50
2019-05-05T00:11:10.076Z,4.50
2019-05-05T00:14:07.758Z,4.40
2019-05-05T00:16:46.136Z,4.40
2019-05-05T00:19:29.479Z,4.60
2019-05-05T00:21:47.391Z,4.70
2019-05-05T00:24:17.188Z,4.60
2019-05-05T00:26:46.932Z,4.50
2019-05-05T00:29:16.686Z,4.80
2019-05-05T00:31:46.495Z,4.80
2019-05-05T00:34:16.295Z,5.00
2019-05-05T00:36:46.193Z,4.90
2019-05-05T00:39:15.968Z,4.80
2019-05-05T00:41:45.723Z,4.70
2019-05-05T00:44:15.637Z,4.60
2019-05-05T00:47:22.487Z,4.60
2019-05-05T00:49:53.439Z,4.70
2019-05-05T00:52:24.541Z,4.90
2019-05-05T00:54:55.597Z,4.80
2019-05-05T00:57:25.539Z,4.80
2019-05-05T00:59:55.354Z,4.80
2019-05-05T01:02:50.200Z,4.70
2019-05-05T01:05:35.259Z,4.70
2019-05-05T01:08:07.833Z,4.60
2019-05-05T01:10:37.615Z,4.70
2019-05-05T01:13:07.458Z,5.00
2019-05-05T01:15:37.499Z,4.90
2019-05-05T01:18:07.298Z,4.70
2019-05-05T01:20:37.030Z,4.80
2019-05-05T01:23:06.769Z,4.70
2019-05-05T01:25:36.565Z,4.70
2019-05-05T01:28:06.403Z,4.90
2019-05-05T01:30:37.895Z,4.90
2019-05-05T01:33:24.946Z,4.90
2019-05-05T01:35:55.235Z,5.00
2019-05-05T01:38:40.472Z,4.90
2019-05-05T01:41:35.553Z,4.90
2019-05-05T01:44:05.625Z,5.00
2019-05-05T01:46:35.506Z,4.80
2019-05-05T01:49:05.673Z,4.50
2019-05-05T01:51:35.694Z,4.60
2019-05-05T01:54:05.695Z,4.70
2019-05-05T01:56:36.247Z,4.70
2019-05-05T01:59:06.217Z,4.80
2019-05-05T02:01:38.782Z,4.70
2019-05-05T02:04:08.541Z,4.70
2019-05-05T02:06:38.361Z,4.70
2019-05-05T02:09:08.315Z,4.60
2019-05-05T02:11:38.218Z,4.70
2019-05-05T02:14:08.084Z,4.80
2019-05-05T02:16:38.127Z,4.70
2019-05-05T02:19:07.880Z,4.70
2019-05-05T02:21:37.750Z,4.60
2019-05-05T02:24:07.582Z,4.70
2019-05-05T02:26:37.511Z,4.60
2019-05-05T02:29:26.237Z,4.70
2019-05-05T02:32:15.793Z,4.70
2019-05-05T02:34:50.474Z,4.50
2019-05-05T02:37:20.371Z,4.50
2019-05-05T02:39:57.823Z,4.50
2019-05-05T02:42:25.011Z,4.60
2019-05-05T02:44:57.785Z,4.50
2019-05-05T02:47:55.082Z,4.60
2019-05-05T02:50:27.542Z,4.60
2019-05-05T02:53:00.235Z,4.60
2019-05-05T02:55:32.795Z,4.50
2019-05-05T02:58:03.773Z,4.60
2019-05-05T03:00:54.113Z,4.70
2019-05-05T03:03:23.945Z,4.70
2019-05-05T03:05:54.982Z,4.80
2019-05-05T03:08:26.768Z,4.70
2019-05-05T03:10:58.520Z,4.90
2019-05-05T03:13:29.813Z,4.80
2019-05-05T03:16:20.489Z,4.70
2019-05-05T03:18:51.339Z,4.70
2019-05-05T03:21:21.796Z,4.70
2019-05-05T03:23:52.167Z,4.80
2019-05-05T03:26:23.392Z,4.80
2019-05-05T03:28:57.428Z,4.80
2019-05-05T03:31:27.359Z,4.80
2019-05-05T03:33:57.669Z,4.70
2019-05-05T03:36:27.944Z,4.70
2019-05-05T03:38:57.759Z,4.80
2019-05-05T03:41:35.193Z,4.60
2019-05-05T03:44:14.102Z,4.80
2019-05-05T03:46:44.209Z,4.80
2019-05-05T03:49:14.224Z,4.80
2019-05-05T03:51:44.252Z,4.80
2019-05-05T03:54:14.736Z,4.80
2019-05-05T03:56:45.096Z,4.70
2019-05-05T03:59:15.410Z,4.70
2019-05-05T04:02:07.276Z,4.60
2019-05-05T04:04:44.099Z,4.70
2019-05-05T04:07:14.118Z,4.70
2019-05-05T04:09:44.376Z,4.60
2019-05-05T04:12:14.736Z,4.80
2019-05-05T04:14:46.494Z,4.90
2019-05-05T04:17:47.286Z,4.80
2019-05-05T04:20:45.175Z,4.80
2019-05-05T04:23:14.917Z,4.80
2019-05-05T04:25:45.988Z,4.80
2019-05-05T04:28:15.713Z,4.60
2019-05-05T04:30:45.497Z,4.70
2019-05-05T04:33:15.176Z,4.70
2019-05-05T04:35:44.907Z,4.60
2019-05-05T04:38:14.654Z,4.70
2019-05-05T04:40:44.400Z,4.80
2019-05-05T04:43:14.426Z,4.80
2019-05-05T04:45:44.254Z,4.90
2019-05-05T04:48:19.451Z,5.10
2019-05-05T04:51:06.038Z,5.10
2019-05-05T04:53:54.314Z,4.70
2019-05-05T04:56:24.344Z,4.70
2019-05-05T04:58:54.466Z,4.80
2019-05-05T05:01:24.343Z,4.70
2019-05-05T05:04:13.644Z,4.90
2019-05-05T05:06:46.521Z,5.20
2019-05-05T05:09:16.215Z,5.30
2019-05-05T05:11:45.950Z,5.20
2019-05-05T05:14:15.628Z,5.60
2019-05-05T05:16:45.787Z,5.50
2019-05-05T05:19:15.447Z,5.40
2019-05-05T05:21:57.641Z,5.30
2019-05-05T05:24:16.578Z,5.30
2019-05-05T05:26:46.341Z,5.30
2019-05-05T05:29:16.016Z,5.40
2019-05-05T05:31:45.779Z,5.60
2019-05-05T05:34:15.490Z,5.80
2019-05-05T05:36:45.242Z,6.00
2019-05-05T05:39:28.448Z,6.20
2019-05-05T05:41:58.387Z,6.10
2019-05-05T05:44:53.499Z,6.10
2019-05-05T05:47:30.695Z,6.20
2019-05-05T05:50:09.801Z,6.20
2019-05-05T05:52:39.595Z,5.80
2019-05-05T05:55:10.754Z,6.00
2019-05-05T05:57:40.504Z,6.30
2019-05-05T06:00:11.413Z,6.20
2019-05-05T06:02:41.125Z,6.00
2019-05-05T06:05:11.268Z,5.80
2019-05-05T06:07:41.002Z,6.00
2019-05-05T06:10:21.447Z,6.00
2019-05-05T06:12:42.190Z,6.00
2019-05-05T06:15:14.112Z,5.80
2019-05-05T06:17:43.576Z,5.70
2019-05-05T06:20:14.510Z,5.50
2019-05-05T06:22:44.736Z,5.80
2019-05-05T06:25:15.918Z,5.70
2019-05-05T06:27:46.103Z,5.70
2019-05-05T06:30:16.258Z,6.20
2019-05-05T06:32:46.016Z,6.90
2019-05-05T06:35:15.921Z,7.40
2019-05-05T06:37:54.866Z,7.30
2019-05-05T06:40:45.269Z,7.40
2019-05-05T06:43:29.818Z,8.90
2019-05-05T06:46:01.539Z,8.20
2019-05-05T06:48:31.308Z,8.10
2019-05-05T06:51:01.177Z,7.80
2019-05-05T06:53:31.002Z,10.40
2019-05-05T06:56:00.731Z,10.70
2019-05-05T06:58:30.568Z,10.50
2019-05-05T07:01:00.283Z,9.60
2019-05-05T07:03:30.065Z,9.00
2019-05-05T07:05:59.804Z,10.50
2019-05-05T07:08:29.596Z,10.90
2019-05-05T07:10:59.655Z,10.10
2019-05-05T07:13:31.002Z,9.30
2019-05-05T07:16:00.798Z,8.30
2019-05-05T07:18:30.587Z,7.40
2019-05-05T07:21:00.503Z,8.20
2019-05-05T07:23:30.267Z,8.10
2019-05-05T07:26:00.135Z,8.20
2019-05-05T07:28:29.945Z,7.50
2019-05-05T07:30:59.778Z,7.20
2019-05-05T07:33:29.645Z,7.40
2019-05-05T07:36:17.317Z,7.70
2019-05-05T07:38:48.380Z,7.40
2019-05-05T07:41:18.070Z,7.60
2019-05-05T07:43:47.909Z,8.00
2019-05-05T07:46:17.693Z,7.80
2019-05-05T07:48:48.357Z,8.50
2019-05-05T07:51:18.298Z,7.70
2019-05-05T07:53:48.664Z,7.70
2019-05-05T07:56:18.773Z,8.10
2019-05-05T07:58:48.735Z,8.30
2019-05-05T08:01:18.795Z,8.40
2019-05-05T08:03:48.566Z,8.40
2019-05-05T08:06:18.285Z,9.10
2019-05-05T08:08:50.206Z,9.20
2019-05-05T08:11:20.130Z,10.50
2019-05-05T08:13:49.926Z,10.70
2019-05-05T08:16:27.071Z,10.90
2019-05-05T08:19:24.964Z,11.80
2019-05-05T08:21:55.207Z,10.70
2019-05-05T08:24:46.890Z,10.70
2019-05-05T08:27:25.006Z,10.70
2019-05-05T08:30:02.109Z,10.20
2019-05-05T08:35:04.709Z,11.50
2019-05-05T08:37:34.573Z,10.20
2019-05-05T08:42:34.455Z,11.20
2019-05-05T08:45:06.613Z,11.10
2019-05-05T08:47:36.335Z,10.60
2019-05-05T08:50:06.306Z,10.10
2019-05-05T08:52:36.210Z,10.30
2019-05-05T08:55:09.380Z,11.20
2019-05-05T08:57:41.536Z,12.60
2019-05-05T09:00:13.719Z,12.50
2019-05-05T09:02:43.778Z,13.60
2019-05-05T09:05:14.439Z,12.30
2019-05-05T09:07:44.324Z,12.30
2019-05-05T09:10:14.381Z,12.20
2019-05-05T09:12:44.146Z,12.30
2019-05-05T09:15:14.422Z,11.70
2019-05-05T09:17:44.193Z,11.90
2019-05-05T09:20:15.114Z,12.90
2019-05-05T09:22:45.021Z,13.00
2019-05-05T09:25:37.206Z,11.90
2019-05-05T09:28:25.831Z,11.60
2019-05-05T09:30:56.607Z,11.10
2019-05-05T09:33:26.332Z,11.60
2019-05-05T09:35:56.509Z,12.20
2019-05-05T09:38:26.617Z,12.10
2019-05-05T09:40:56.901Z,12.20
2019-05-05T09:43:26.641Z,11.90
2019-05-05T09:45:56.371Z,12.00
2019-05-05T09:48:26.072Z,11.10
2019-05-05T09:50:55.817Z,11.70
2019-05-05T09:53:27.333Z,10.80
2019-05-05T09:55:57.091Z,10.50
2019-05-05T09:58:27.221Z,10.50
2019-05-05T10:00:57.020Z,10.90
2019-05-05T10:03:26.692Z,11.10
2019-05-05T10:05:56.370Z,11.90
2019-05-05T10:08:26.221Z,12.20
2019-05-05T10:10:56.001Z,11.90
2019-05-05T10:13:28.212Z,11.50
2019-05-05T10:15:58.061Z,11.00
2019-05-05T10:18:36.847Z,11.10
2019-05-05T10:21:07.364Z,11.70
2019-05-05T10:23:44.920Z,11.20
2019-05-05T10:26:14.920Z,10.60
2019-05-05T10:28:53.712Z,10.80
2019-05-05T10:31:25.004Z,11.10
2019-05-05T10:34:00.337Z,11.60
2019-05-05T10:36:33.721Z,11.20
2019-05-05T10:39:12.937Z,11.20
2019-05-05T10:41:47.702Z,11.80
2019-05-05T10:44:18.850Z,11.80
2019-05-05T10:46:49.508Z,11.20
2019-05-05T10:49:21.110Z,11.40
2019-05-05T10:51:54.328Z,11.40
2019-05-05T10:56:54.208Z,12.00
2019-05-05T10:59:24.855Z,12.50
2019-05-05T11:01:55.249Z,12.10
2019-05-05T11:04:25.935Z,12.10
2019-05-05T11:06:56.508Z,12.90
2019-05-05T11:09:27.257Z,12.30
2019-05-05T11:11:58.007Z,12.40
2019-05-05T11:14:28.184Z,12.80
2019-05-05T11:19:28.412Z,12.20
2019-05-05T11:21:59.202Z,12.40
2019-05-05T11:24:34.454Z,11.60
2019-05-05T11:27:04.793Z,12.20
2019-05-05T11:30:01.136Z,12.40
2019-05-05T11:32:49.398Z,11.80
2019-05-05T11:35:21.916Z,11.90
2019-05-05T11:37:54.150Z,12.30
2019-05-05T11:40:32.682Z,13.00
2019-05-05T11:43:03.817Z,12.40
2019-05-05T11:58:03.642Z,12.00
2019-05-05T12:00:34.706Z,11.00
2019-05-05T12:03:04.967Z,10.70
2019-05-05T12:05:34.818Z,10.50
2019-05-05T12:08:04.548Z,10.30
2019-05-05T12:10:54.046Z,10.90
2019-05-05T12:13:23.442Z,11.20
2019-05-05T12:15:59.280Z,11.00
2019-05-05T12:23:29.792Z,11.50
2019-05-05T12:26:18.441Z,11.40
2019-05-05T12:29:07.214Z,11.40
2019-05-05T12:31:39.030Z,11.40
2019-05-05T12:34:08.790Z,11.20
2019-05-05T12:36:38.540Z,11.00
2019-05-05T12:39:14.292Z,10.50
2019-05-05T12:41:44.935Z,10.90
2019-05-05T12:44:23.787Z,10.90
2019-05-05T12:47:03.837Z,11.80
2019-05-05T12:49:33.998Z,11.50
2019-05-05T12:52:04.601Z,11.50
2019-05-05T12:54:34.513Z,11.80
2019-05-05T12:57:04.469Z,12.10
2019-05-05T12:59:34.364Z,12.10
2019-05-05T13:02:04.100Z,11.70
2019-05-05T13:04:34.056Z,11.90
2019-05-05T13:07:04.975Z,12.00
2019-05-05T13:09:35.380Z,11.90
2019-05-05T13:12:05.201Z,11.80
2019-05-05T13:14:34.980Z,12.70
2019-05-05T13:17:04.869Z,12.20
2019-05-05T13:19:44.490Z,12.50
2019-05-05T13:22:33.676Z,12.30
2019-05-05T13:25:20.717Z,12.30
2019-05-05T13:27:50.426Z,11.80
2019-05-05T13:30:20.978Z,11.00
2019-05-05T13:32:50.706Z,11.80
2019-05-05T13:37:49.495Z,11.10
2019-05-05T13:40:19.518Z,11.40
2019-05-05T13:42:49.211Z,11.50
2019-05-05T13:45:36.996Z,11.80
2019-05-05T13:48:06.863Z,11.70
2019-05-05T13:58:09.183Z,11.40
2019-05-05T14:00:39.137Z,11.10
2019-05-05T14:13:05.092Z,11.40
2019-05-05T14:15:34.861Z,11.30
2019-05-05T14:18:04.672Z,11.30
2019-05-05T14:20:34.600Z,11.20
2019-05-05T14:23:04.698Z,11.50
2019-05-05T14:25:34.408Z,11.70
2019-05-05T14:30:46.652Z,11.90
2019-05-05T14:36:19.146Z,11.30
2019-05-05T14:38:53.785Z,11.50
2019-05-05T14:41:23.321Z,11.30
2019-05-05T14:43:54.638Z,11.20
2019-05-05T14:46:24.516Z,11.60
2019-05-05T14:48:56.580Z,11.90
2019-05-05T14:51:26.517Z,11.80
2019-05-05T14:53:56.198Z,11.40
2019-05-05T14:56:35.678Z,11.40
2019-05-05T14:58:57.372Z,11.20
2019-05-05T15:01:27.164Z,11.30
2019-05-05T15:03:56.872Z,11.50
2019-05-05T15:06:44.032Z,11.50
2019-05-05T15:09:35.807Z,11.90
2019-05-05T15:12:23.712Z,11.90
2019-05-05T15:14:54.698Z,11.60
2019-05-05T15:17:24.743Z,11.60
2019-05-05T15:19:54.636Z,11.80
2019-05-05T15:22:24.412Z,11.80
2019-05-05T15:24:54.126Z,11.80
2019-05-05T15:27:26.998Z,11.40
2019-05-05T15:29:56.720Z,11.40
2019-05-05T15:32:26.488Z,11.40
2019-05-05T15:37:25.238Z,11.50
2019-05-05T15:39:54.987Z,11.40
2019-05-05T15:42:24.768Z,11.10
2019-05-05T15:44:54.519Z,11.10
2019-05-05T15:47:25.841Z,11.30
2019-05-05T15:49:55.492Z,11.30
2019-05-05T15:52:25.207Z,11.20
2019-05-05T15:54:55.010Z,11.10
2019-05-05T15:57:24.833Z,11.30
2019-05-05T16:02:24.191Z,11.40
2019-05-05T16:04:54.185Z,11.10
2019-05-05T16:07:24.240Z,11.10
2019-05-05T16:09:54.304Z,11.20
2019-05-05T16:12:33.392Z,11.30
2019-05-05T16:15:26.031Z,11.60
2019-05-05T16:18:13.743Z,11.50
2019-05-05T16:20:48.258Z,11.50
2019-05-05T16:23:21.090Z,11.60
2019-05-05T16:25:50.771Z,11.30
2019-05-05T16:28:20.494Z,11.40
2019-05-05T16:30:50.226Z,11.50
2019-05-05T16:33:24.154Z,11.60
2019-05-05T16:35:53.998Z,11.30
2019-05-05T16:38:24.026Z,11.30
2019-05-05T16:40:54.049Z,11.00
2019-05-05T16:43:24.738Z,11.00
2019-05-05T16:48:25.605Z,11.30
2019-05-05T16:50:55.356Z,11.20
2019-05-05T16:53:40.470Z,11.30
2019-05-05T16:56:14.052Z,11.30
2019-05-05T16:58:45.071Z,11.30
2019-05-05T17:01:18.223Z,11.40
2019-05-05T17:03:48.127Z,11.50
2019-05-05T17:06:17.813Z,11.20
2019-05-05T17:08:47.690Z,11.00
2019-05-05T17:13:52.094Z,10.90
2019-05-05T17:16:59.196Z,10.80
2019-05-05T17:19:39.820Z,10.80
2019-05-05T17:22:16.006Z,10.80
2019-05-05T17:24:45.852Z,11.00
2019-05-05T17:29:44.661Z,10.80
2019-05-05T17:32:14.364Z,10.70
2019-05-05T17:34:44.883Z,10.70
2019-05-05T17:53:46.632Z,10.50
2019-05-05T17:56:16.391Z,10.40
2019-05-05T18:14:41.030Z,10.20
2019-05-05T18:17:11.407Z,10.10
2019-05-05T18:19:41.142Z,10.10
2019-05-05T18:22:10.870Z,9.90
2019-05-05T18:24:40.740Z,9.80
2019-05-05T18:27:10.524Z,9.90
2019-05-05T18:29:40.220Z,9.90
2019-05-05T18:32:10.008Z,9.90
2019-05-05T18:34:39.722Z,9.90
2019-05-05T18:37:09.574Z,9.90
2019-05-05T18:39:39.320Z,9.90
2019-05-05T18:42:15.221Z,9.90
2019-05-05T18:44:47.262Z,9.90
2019-05-05T18:47:18.929Z,9.60
2019-05-05T18:49:48.872Z,9.60
2019-05-05T18:52:18.673Z,9.70
2019-05-05T18:54:48.434Z,9.70
2019-05-05T18:57:18.302Z,9.50
2019-05-05T18:59:48.108Z,9.40
2019-05-05T19:02:36.761Z,9.30
2019-05-05T19:05:25.324Z,9.30
2019-05-05T19:07:58.089Z,9.30
2019-05-05T19:10:28.832Z,8.90
2019-05-05T19:12:58.837Z,8.80
2019-05-05T19:15:29.604Z,8.80
2019-05-05T19:17:59.414Z,8.70
2019-05-05T19:20:35.248Z,8.70
2019-05-05T19:23:05.866Z,8.70
2019-05-05T19:25:36.017Z,8.60
